createdAt,value
2018-01-23T00:00:58.000Z,87.59
2018-01-23T00:02:51.131Z,87.69
2018-01-23T00:03:51.146Z,87.78
2018-01-23T00:05:43.349Z,87.69
2018-01-23T00:06:43.431Z,87.88
2018-01-23T00:08:36.534Z,87.50
2018-01-23T00:09:36.520Z,87.50
2018-01-23T00:11:28.669Z,87.88
2018-01-23T00:12:28.682Z,87.50
2018-01-23T00:14:21.836Z,87.88
2018-01-23T00:15:21.851Z,88.07
2018-01-23T00:17:14.038Z,87.50
2018-01-23T00:18:14.042Z,87.74
2018-01-23T00:20:07.250Z,88.59
2018-01-23T00:21:07.247Z,88.78
2018-01-23T00:23:15.751Z,88.59
2018-01-23T00:24:15.762Z,88.68
2018-01-23T00:26:08.918Z,88.59
2018-01-23T00:27:08.911Z,88.87
2018-01-23T00:29:02.120Z,88.78
2018-01-23T00:30:02.065Z,88.78
2018-01-23T00:31:55.237Z,88.59
2018-01-23T00:32:55.243Z,88.40
2018-01-23T00:34:48.399Z,88.59
2018-01-23T00:35:48.403Z,88.21
2018-01-23T00:37:40.567Z,88.59
2018-01-23T00:38:40.567Z,88.26
2018-01-23T00:40:32.726Z,88.45
2018-01-23T00:41:32.740Z,87.69
2018-01-23T00:43:25.872Z,87.59
2018-01-23T00:44:25.893Z,87.69
2018-01-23T00:46:19.052Z,87.69
2018-01-23T00:47:19.060Z,87.88
2018-01-23T00:49:11.222Z,87.88
2018-01-23T00:50:11.212Z,87.59
2018-01-23T00:52:03.391Z,87.40
2018-01-23T00:53:03.401Z,87.50
2018-01-23T00:54:55.559Z,87.21
2018-01-23T00:55:55.559Z,87.31
2018-01-23T00:58:06.101Z,87.12
2018-01-23T00:59:06.109Z,87.40
2018-01-23T01:00:59.280Z,87.40
2018-01-23T01:01:59.292Z,87.12
2018-01-23T01:03:52.434Z,87.50
2018-01-23T01:04:52.448Z,87.78
2018-01-23T01:06:44.617Z,87.69
2018-01-23T01:07:44.627Z,87.59
2018-01-23T01:09:36.859Z,87.69
2018-01-23T01:10:36.809Z,87.78
2018-01-23T01:12:29.968Z,87.50
2018-01-23T01:13:29.968Z,87.69
2018-01-23T01:15:23.144Z,87.88
2018-01-23T01:16:23.129Z,88.07
2018-01-23T01:18:15.287Z,87.88
2018-01-23T01:19:15.299Z,87.50
2018-01-23T01:21:08.447Z,87.78
2018-01-23T01:22:08.468Z,87.69
2018-01-23T01:24:01.584Z,87.69
2018-01-23T01:25:01.602Z,87.88
2018-01-23T01:26:53.780Z,87.50
2018-01-23T01:27:53.785Z,87.40
2018-01-23T01:29:57.625Z,87.40
2018-01-23T01:30:57.621Z,87.21
2018-01-23T01:32:50.772Z,87.02
2018-01-23T01:33:50.780Z,87.40
2018-01-23T01:35:42.918Z,87.31
2018-01-23T01:36:42.914Z,87.21
2018-01-23T01:38:49.432Z,87.31
2018-01-23T01:39:49.418Z,87.69
2018-01-23T01:41:42.584Z,87.02
2018-01-23T01:42:42.574Z,87.31
2018-01-23T01:44:35.712Z,87.21
2018-01-23T01:45:35.737Z,87.21
2018-01-23T01:47:28.876Z,87.40
2018-01-23T01:48:28.882Z,86.93
2018-01-23T01:50:22.066Z,88.68
2018-01-23T01:51:22.105Z,88.78
2018-01-23T01:53:14.383Z,88.78
2018-01-23T01:54:14.400Z,88.59
2018-01-23T01:56:06.602Z,88.45
2018-01-23T01:57:07.290Z,87.98
2018-01-23T01:58:59.485Z,88.35
2018-01-23T01:59:58.765Z,87.98
2018-01-23T02:01:51.910Z,88.64
2018-01-23T02:02:51.914Z,88.64
2018-01-23T02:04:45.205Z,88.26
2018-01-23T02:05:45.067Z,87.88
2018-01-23T02:07:38.232Z,87.69
2018-01-23T02:08:38.230Z,87.88
2018-01-23T02:10:31.433Z,87.78
2018-01-23T02:11:31.379Z,87.98
2018-01-23T02:13:24.503Z,87.50
2018-01-23T02:14:24.520Z,87.31
2018-01-23T02:16:17.669Z,87.40
2018-01-23T02:17:17.677Z,87.40
2018-01-23T02:19:10.818Z,87.69
2018-01-23T02:20:10.832Z,87.50
2018-01-23T02:22:04.054Z,87.31
2018-01-23T02:23:04.024Z,87.50
2018-01-23T02:24:57.167Z,87.31
2018-01-23T02:25:57.185Z,87.40
2018-01-23T02:27:49.372Z,87.50
2018-01-23T02:28:49.370Z,87.98
2018-01-23T02:30:43.271Z,88.49
2018-01-23T02:31:42.535Z,89.06
2018-01-23T02:33:35.691Z,89.06
2018-01-23T02:34:35.706Z,89.16
2018-01-23T02:36:29.608Z,89.30
2018-01-23T02:37:28.867Z,88.45
2018-01-23T02:39:21.026Z,88.73
2018-01-23T02:40:21.036Z,88.54
2018-01-23T02:42:13.237Z,88.07
2018-01-23T02:43:13.244Z,87.98
2018-01-23T02:45:06.385Z,88.17
2018-01-23T02:46:06.405Z,88.17
2018-01-23T02:47:59.600Z,88.35
2018-01-23T02:48:59.595Z,87.69
2018-01-23T02:50:52.754Z,87.69
2018-01-23T02:51:52.753Z,87.88
2018-01-23T02:53:45.902Z,87.69
2018-01-23T02:54:45.918Z,87.59
2018-01-23T02:56:38.124Z,88.54
2018-01-23T02:57:38.125Z,88.17
2018-01-23T02:59:30.263Z,87.50
2018-01-23T03:00:30.276Z,87.69
2018-01-23T03:02:22.481Z,87.40
2018-01-23T03:03:22.489Z,87.59
2018-01-23T03:05:15.632Z,87.50
2018-01-23T03:06:15.653Z,87.31
2018-01-23T03:08:08.822Z,87.59
2018-01-23T03:09:08.832Z,87.69
2018-01-23T03:11:01.970Z,87.69
2018-01-23T03:12:01.977Z,87.88
2018-01-23T03:13:54.112Z,88.07
2018-01-23T03:14:54.125Z,87.50
2018-01-23T03:16:46.302Z,87.59
2018-01-23T03:17:46.306Z,87.59
2018-01-23T03:19:39.453Z,87.50
2018-01-23T03:20:39.462Z,87.69
2018-01-23T03:22:31.645Z,87.69
2018-01-23T03:23:31.629Z,87.98
2018-01-23T03:25:24.762Z,88.54
2018-01-23T03:26:24.779Z,88.82
2018-01-23T03:28:18.260Z,88.54
2018-01-23T03:29:18.070Z,88.54
2018-01-23T03:31:20.933Z,88.64
2018-01-23T03:32:21.473Z,88.26
2018-01-23T03:34:13.157Z,88.54
2018-01-23T03:35:13.094Z,88.82
2018-01-23T03:37:06.246Z,88.92
2018-01-23T03:38:06.248Z,88.35
2018-01-23T03:39:59.401Z,88.45
2018-01-23T03:40:59.411Z,88.64
2018-01-23T03:42:52.554Z,88.64
2018-01-23T03:43:52.561Z,89.01
2018-01-23T03:45:45.764Z,89.01
2018-01-23T03:46:45.779Z,88.54
2018-01-23T03:48:38.941Z,89.01
2018-01-23T03:49:38.946Z,89.01
2018-01-23T03:51:31.100Z,88.92
2018-01-23T03:52:31.096Z,88.73
2018-01-23T03:54:24.233Z,88.45
2018-01-23T03:55:24.254Z,89.01
2018-01-23T03:57:30.786Z,90.34
2018-01-23T03:58:30.722Z,90.53
2018-01-23T04:00:23.922Z,89.96
2018-01-23T04:01:23.914Z,89.77
2018-01-23T04:03:17.050Z,89.58
2018-01-23T04:04:17.062Z,89.49
2018-01-23T04:06:10.229Z,89.20
2018-01-23T04:07:10.218Z,89.20
2018-01-23T04:09:03.378Z,89.39
2018-01-23T04:10:03.375Z,89.39
2018-01-23T04:11:56.536Z,89.49
2018-01-23T04:12:56.542Z,89.11
2018-01-23T04:14:49.681Z,89.30
2018-01-23T04:15:49.692Z,89.01
2018-01-23T04:17:41.893Z,89.20
2018-01-23T04:18:41.885Z,88.64
2018-01-23T04:20:35.053Z,89.30
2018-01-23T04:21:35.080Z,89.01
2018-01-23T04:23:28.227Z,89.58
2018-01-23T04:24:28.229Z,88.54
2018-01-23T04:26:31.072Z,88.35
2018-01-23T04:27:31.187Z,88.35
2018-01-23T04:29:24.276Z,88.64
2018-01-23T04:30:24.275Z,88.64
2018-01-23T04:32:17.449Z,89.11
2018-01-23T04:33:17.443Z,89.58
2018-01-23T04:35:09.578Z,89.30
2018-01-23T04:36:09.582Z,89.30
2018-01-23T04:38:02.741Z,89.39
2018-01-23T04:39:02.743Z,89.20
2018-01-23T04:40:54.882Z,89.20
2018-01-23T04:41:54.920Z,89.20
2018-01-23T04:43:48.039Z,89.30
2018-01-23T04:44:48.038Z,89.30
2018-01-23T04:46:41.187Z,89.30
2018-01-23T04:47:41.199Z,89.30
2018-01-23T04:49:34.354Z,89.58
2018-01-23T04:50:34.363Z,89.20
2018-01-23T04:52:26.500Z,88.92
2018-01-23T04:53:26.513Z,89.11
2018-01-23T04:55:18.657Z,89.01
2018-01-23T04:56:18.673Z,89.30
2018-01-23T04:58:11.839Z,89.39
2018-01-23T05:00:24.964Z,89.30
2018-01-23T05:01:25.164Z,89.30
2018-01-23T05:03:18.122Z,89.01
2018-01-23T05:04:18.136Z,89.39
2018-01-23T05:06:11.273Z,88.82
2018-01-23T05:07:11.288Z,89.39
2018-01-23T05:09:04.495Z,89.39
2018-01-23T05:10:04.496Z,89.39
2018-01-23T05:11:56.825Z,89.11
2018-01-23T05:12:56.838Z,89.39
2018-01-23T05:14:50.003Z,88.26
2018-01-23T05:15:49.997Z,88.45
2018-01-23T05:17:43.156Z,88.92
2018-01-23T05:18:43.153Z,88.82
2018-01-23T05:20:35.317Z,88.64
2018-01-23T05:21:35.331Z,88.54
2018-01-23T05:23:27.515Z,89.39
2018-01-23T05:24:27.516Z,89.01
2018-01-23T05:26:19.656Z,88.64
2018-01-23T05:27:19.670Z,88.64
2018-01-23T05:29:12.901Z,88.64
2018-01-23T05:30:12.909Z,89.01
2018-01-23T05:32:05.142Z,88.54
2018-01-23T05:33:05.044Z,88.92
2018-01-23T05:34:58.186Z,88.54
2018-01-23T05:35:58.197Z,88.64
2018-01-23T05:37:51.341Z,88.82
2018-01-23T05:38:51.356Z,88.82
2018-01-23T05:40:43.484Z,88.54
2018-01-23T05:41:43.485Z,88.82
2018-01-23T05:43:36.620Z,88.73
2018-01-23T05:44:36.631Z,88.54
2018-01-23T05:46:28.808Z,88.82
2018-01-23T05:47:28.804Z,88.54
2018-01-23T05:49:20.978Z,88.64
2018-01-23T05:50:20.975Z,88.82
2018-01-23T05:52:14.120Z,89.01
2018-01-23T05:53:14.133Z,88.92
2018-01-23T05:55:07.352Z,88.54
2018-01-23T05:56:07.464Z,88.45
2018-01-23T05:57:59.539Z,88.64
2018-01-23T05:58:59.534Z,88.64
2018-01-23T06:00:51.677Z,88.54
2018-01-23T06:01:51.686Z,89.39
2018-01-23T06:03:43.862Z,89.01
2018-01-23T06:04:43.867Z,89.30
2018-01-23T06:06:36.038Z,89.39
2018-01-23T06:07:36.049Z,88.92
2018-01-23T06:09:29.236Z,89.39
2018-01-23T06:10:29.221Z,89.30
2018-01-23T06:12:48.372Z,89.11
2018-01-23T06:13:48.375Z,89.20
2018-01-23T06:15:40.520Z,89.39
2018-01-23T06:16:40.517Z,89.77
2018-01-23T06:18:32.718Z,89.58
2018-01-23T06:19:32.701Z,89.30
2018-01-23T06:21:25.939Z,89.30
2018-01-23T06:22:25.956Z,89.39
2018-01-23T06:24:19.098Z,89.20
2018-01-23T06:25:19.225Z,89.58
2018-01-23T06:27:12.343Z,89.49
2018-01-23T06:28:12.354Z,89.58
2018-01-23T06:30:05.509Z,89.39
2018-01-23T06:31:05.513Z,89.49
2018-01-23T06:32:58.653Z,89.68
2018-01-23T06:33:58.668Z,89.49
2018-01-23T06:35:51.817Z,89.58
2018-01-23T06:36:51.817Z,89.87
2018-01-23T06:38:43.946Z,89.77
2018-01-23T06:39:43.956Z,89.77
2018-01-23T06:41:37.125Z,89.58
2018-01-23T06:42:37.122Z,89.87
2018-01-23T06:44:30.294Z,89.58
2018-01-23T06:45:30.296Z,89.68
2018-01-23T06:47:23.453Z,89.68
2018-01-23T06:48:23.454Z,89.77
2018-01-23T06:50:15.637Z,89.77
2018-01-23T06:51:15.647Z,89.49
2018-01-23T06:53:08.917Z,89.77
2018-01-23T06:54:08.799Z,89.39
2018-01-23T06:56:01.954Z,90.15
2018-01-23T06:57:01.960Z,90.34
2018-01-23T06:58:55.210Z,89.77
2018-01-23T06:59:55.114Z,90.15
2018-01-23T07:01:47.289Z,89.58
2018-01-23T07:02:47.333Z,90.06
2018-01-23T07:04:40.445Z,90.34
2018-01-23T07:05:40.445Z,89.77
2018-01-23T07:07:33.602Z,89.58
2018-01-23T07:08:33.604Z,89.49
2018-01-23T07:10:26.745Z,89.96
2018-01-23T07:11:26.741Z,91.29
2018-01-23T07:13:19.875Z,91.00
2018-01-23T07:14:19.886Z,91.10
2018-01-23T07:16:12.100Z,91.19
2018-01-23T07:17:12.116Z,90.81
2018-01-23T07:19:04.250Z,90.72
2018-01-23T07:20:04.263Z,90.63
2018-01-23T07:21:57.415Z,91.10
2018-01-23T07:22:57.424Z,91.86
2018-01-23T07:24:50.636Z,91.38
2018-01-23T07:25:50.623Z,91.10
2018-01-23T07:27:43.764Z,91.57
2018-01-23T07:28:43.781Z,91.48
2018-01-23T07:30:35.935Z,91.76
2018-01-23T07:31:35.931Z,91.19
2018-01-23T07:33:29.143Z,91.57
2018-01-23T07:34:29.177Z,91.10
2018-01-23T07:36:22.325Z,90.72
2018-01-23T07:37:22.313Z,91.00
2018-01-23T07:39:15.452Z,91.38
2018-01-23T07:40:15.465Z,91.10
2018-01-23T07:42:08.633Z,91.57
2018-01-23T07:43:08.635Z,91.76
2018-01-23T07:45:01.798Z,91.86
2018-01-23T07:46:01.789Z,91.38
2018-01-23T07:47:54.934Z,91.38
2018-01-23T07:48:54.941Z,91.67
2018-01-23T07:50:47.125Z,91.10
2018-01-23T07:51:47.134Z,91.38
2018-01-23T07:53:40.290Z,91.76
2018-01-23T07:54:40.299Z,91.95
2018-01-23T07:56:32.584Z,91.86
2018-01-23T07:57:32.479Z,92.14
2018-01-23T07:59:24.635Z,92.05
2018-01-23T08:00:24.637Z,91.86
2018-01-23T08:02:16.926Z,92.14
2018-01-23T08:03:16.825Z,92.14
2018-01-23T08:05:09.985Z,92.05
2018-01-23T08:06:09.982Z,91.76
2018-01-23T08:08:03.140Z,91.29
2018-01-23T08:09:03.141Z,91.76
2018-01-23T08:10:56.297Z,91.57
2018-01-23T08:11:56.294Z,91.10
2018-01-23T08:13:49.442Z,91.19
2018-01-23T08:14:49.456Z,90.91
2018-01-23T08:16:42.628Z,91.48
2018-01-23T08:17:42.627Z,92.14
2018-01-23T08:19:35.762Z,92.05
2018-01-23T08:20:35.774Z,91.95
2018-01-23T08:22:28.935Z,91.57
2018-01-23T08:23:28.935Z,92.43
2018-01-23T08:25:22.098Z,92.33
2018-01-23T08:26:22.092Z,92.71
2018-01-23T08:28:15.234Z,92.61
2018-01-23T08:29:15.257Z,92.33
2018-01-23T08:31:07.429Z,92.14
2018-01-23T08:32:07.420Z,92.80
2018-01-23T08:34:00.562Z,93.08
2018-01-23T08:35:00.579Z,92.14
2018-01-23T08:36:53.723Z,92.43
2018-01-23T08:37:53.727Z,92.43
2018-01-23T08:39:46.889Z,91.67
2018-01-23T08:40:46.899Z,92.24
2018-01-23T08:42:40.057Z,92.80
2018-01-23T08:43:40.051Z,92.80
2018-01-23T08:45:33.196Z,93.37
2018-01-23T08:46:33.200Z,92.71
2018-01-23T08:48:26.333Z,93.18
2018-01-23T08:49:26.353Z,93.27
2018-01-23T08:51:19.542Z,93.08
2018-01-23T08:52:19.552Z,93.84
2018-01-23T08:54:29.037Z,93.08
2018-01-23T08:55:29.045Z,93.46
2018-01-23T08:57:22.200Z,93.18
2018-01-23T08:58:22.197Z,92.71
2018-01-23T09:00:15.345Z,92.71
2018-01-23T09:01:15.363Z,92.90
2018-01-23T09:03:08.541Z,93.46
2018-01-23T09:04:08.542Z,93.37
2018-01-23T09:06:01.702Z,93.37
2018-01-23T09:07:02.441Z,94.32
2018-01-23T09:09:11.260Z,93.75
2018-01-23T09:10:11.252Z,93.65
2018-01-23T09:12:04.401Z,93.08
2018-01-23T09:13:04.402Z,93.56
2018-01-23T09:14:57.875Z,93.65
2018-01-23T09:15:57.555Z,92.90
2018-01-23T09:17:50.707Z,92.71
2018-01-23T09:18:50.714Z,92.38
2018-01-23T09:20:43.866Z,92.05
2018-01-23T09:21:43.873Z,92.71
2018-01-23T09:23:37.036Z,93.18
2018-01-23T09:24:37.073Z,93.37
2018-01-23T09:26:30.196Z,93.46
2018-01-23T09:27:30.200Z,93.18
2018-01-23T09:29:23.338Z,93.37
2018-01-23T09:30:23.359Z,93.37
2018-01-23T09:32:16.527Z,93.65
2018-01-23T09:33:16.530Z,93.37
2018-01-23T09:35:09.715Z,93.75
2018-01-23T09:36:09.682Z,93.94
2018-01-23T09:38:02.833Z,93.37
2018-01-23T09:39:02.834Z,93.75
2018-01-23T09:40:55.983Z,93.27
2018-01-23T09:41:56.002Z,93.08
2018-01-23T09:43:49.167Z,92.76
2018-01-23T09:44:49.171Z,92.33
2018-01-23T09:46:42.320Z,92.38
2018-01-23T09:47:42.317Z,92.61
2018-01-23T09:49:35.469Z,92.05
2018-01-23T09:50:35.491Z,92.90
2018-01-23T09:52:28.644Z,92.33
2018-01-23T09:53:28.641Z,92.57
2018-01-23T09:55:21.783Z,92.09
2018-01-23T09:56:21.806Z,92.00
2018-01-23T09:58:14.958Z,91.86
2018-01-23T09:59:14.965Z,92.52
2018-01-23T10:01:08.125Z,92.24
2018-01-23T10:02:08.134Z,92.05
2018-01-23T10:04:01.335Z,91.76
2018-01-23T10:05:01.336Z,92.00
2018-01-23T10:06:54.497Z,92.09
2018-01-23T10:07:54.501Z,91.62
2018-01-23T10:09:47.635Z,91.71
2018-01-23T10:10:47.648Z,91.14
2018-01-23T10:12:40.817Z,90.95
2018-01-23T10:13:40.804Z,91.24
2018-01-23T10:15:33.977Z,90.77
2018-01-23T10:16:33.983Z,91.52
2018-01-23T10:18:27.141Z,91.33
2018-01-23T10:19:27.143Z,91.52
2018-01-23T10:21:20.304Z,91.05
2018-01-23T10:22:20.320Z,90.95
2018-01-23T10:24:13.481Z,90.01
2018-01-23T10:25:13.477Z,90.20
2018-01-23T10:27:06.641Z,90.39
2018-01-23T10:28:06.646Z,90.10
2018-01-23T10:29:59.776Z,89.72
2018-01-23T10:30:59.796Z,90.01
2018-01-23T10:32:53.073Z,90.29
2018-01-23T10:33:52.962Z,90.39
2018-01-23T10:35:46.099Z,90.39
2018-01-23T10:36:46.118Z,90.10
2018-01-23T10:38:39.328Z,89.53
2018-01-23T10:39:39.267Z,89.53
2018-01-23T10:41:32.426Z,89.06
2018-01-23T10:42:32.428Z,88.68
2018-01-23T10:44:25.591Z,89.06
2018-01-23T10:45:25.588Z,89.15
2018-01-23T10:47:18.735Z,89.06
2018-01-23T10:48:18.745Z,88.96
2018-01-23T10:50:11.909Z,88.21
2018-01-23T10:51:11.909Z,88.68
2018-01-23T10:53:05.066Z,89.44
2018-01-23T10:54:05.065Z,89.25
2018-01-23T10:55:58.222Z,89.44
2018-01-23T10:56:58.242Z,89.53
2018-01-23T10:58:51.383Z,89.25
2018-01-23T10:59:51.380Z,88.68
2018-01-23T11:01:44.543Z,88.68
2018-01-23T11:02:44.550Z,88.68
2018-01-23T11:04:37.716Z,88.63
2018-01-23T11:05:37.710Z,88.40
2018-01-23T11:07:30.853Z,88.87
2018-01-23T11:08:30.907Z,88.30
2018-01-23T11:10:24.021Z,89.44
2018-01-23T11:11:24.028Z,89.15
2018-01-23T11:13:17.230Z,89.53
2018-01-23T11:14:17.191Z,90.48
2018-01-23T11:16:10.325Z,90.39
2018-01-23T11:17:10.337Z,90.29
2018-01-23T11:19:03.504Z,91.05
2018-01-23T11:20:03.498Z,91.00
2018-01-23T11:21:56.640Z,92.09
2018-01-23T11:22:56.664Z,91.90
2018-01-23T11:24:49.825Z,92.05
2018-01-23T11:25:49.842Z,91.86
2018-01-23T11:27:43.059Z,91.43
2018-01-23T11:28:43.065Z,91.14
2018-01-23T11:30:36.232Z,92.09
2018-01-23T11:31:36.251Z,91.43
2018-01-23T11:33:29.394Z,91.14
2018-01-23T11:34:29.416Z,91.24
2018-01-23T11:36:22.546Z,90.86
2018-01-23T11:37:22.549Z,90.95
2018-01-23T11:39:15.756Z,92.09
2018-01-23T11:40:15.719Z,92.14
2018-01-23T11:42:08.848Z,91.90
2018-01-23T11:43:08.866Z,92.57
2018-01-23T11:45:02.023Z,92.00
2018-01-23T11:46:02.024Z,91.71
2018-01-23T11:47:55.184Z,92.19
2018-01-23T11:48:55.190Z,92.38
2018-01-23T11:50:48.352Z,92.09
2018-01-23T11:51:48.340Z,91.62
2018-01-23T11:53:41.501Z,91.71
2018-01-23T11:54:41.506Z,92.00
2018-01-23T11:56:34.629Z,91.52
2018-01-23T11:57:34.645Z,90.95
2018-01-23T11:59:27.813Z,90.53
2018-01-23T12:00:27.820Z,89.67
2018-01-23T12:02:20.957Z,89.48
2018-01-23T12:03:20.978Z,88.82
2018-01-23T12:05:14.133Z,89.06
2018-01-23T12:06:14.147Z,89.34
2018-01-23T12:08:08.036Z,89.53
2018-01-23T12:09:07.296Z,89.25
2018-01-23T12:11:00.462Z,90.58
2018-01-23T12:12:00.453Z,90.34
2018-01-23T12:13:53.625Z,90.15
2018-01-23T12:14:53.608Z,89.29
2018-01-23T12:16:46.757Z,88.82
2018-01-23T12:17:46.767Z,88.54
2018-01-23T12:19:39.929Z,89.34
2018-01-23T12:20:39.929Z,90.48
2018-01-23T12:22:33.108Z,90.86
2018-01-23T12:23:33.119Z,91.05
2018-01-23T12:25:26.274Z,91.33
2018-01-23T12:26:26.270Z,90.86
2018-01-23T12:28:19.476Z,90.86
2018-01-23T12:29:19.482Z,91.52
2018-01-23T12:31:12.638Z,91.90
2018-01-23T12:32:12.632Z,91.81
2018-01-23T12:34:05.817Z,92.09
2018-01-23T12:35:05.822Z,91.52
2018-01-23T12:36:58.978Z,91.05
2018-01-23T12:37:58.984Z,91.14
2018-01-23T12:39:52.158Z,91.43
2018-01-23T12:40:52.155Z,91.05
2018-01-23T12:42:45.323Z,91.43
2018-01-23T12:43:45.328Z,92.09
2018-01-23T12:45:38.483Z,92.09
2018-01-23T12:46:38.489Z,91.81
2018-01-23T12:48:31.632Z,92.09
2018-01-23T12:49:31.655Z,91.81
2018-01-23T12:51:24.802Z,92.28
2018-01-23T12:52:24.802Z,92.47
2018-01-23T12:54:17.962Z,92.94
2018-01-23T12:55:17.981Z,92.76
2018-01-23T12:57:11.137Z,93.04
2018-01-23T12:58:11.137Z,93.23
2018-01-23T13:00:04.306Z,93.61
2018-01-23T13:01:04.296Z,94.37
2018-01-23T13:02:57.443Z,94.37
2018-01-23T13:03:57.461Z,93.51
2018-01-23T13:05:50.641Z,93.61
2018-01-23T13:08:43.779Z,94.37
2018-01-23T13:09:43.797Z,93.61
2018-01-23T13:11:36.943Z,93.32
2018-01-23T13:12:36.950Z,93.70
2018-01-23T13:14:30.110Z,93.61
2018-01-23T13:15:30.106Z,93.70
2018-01-23T13:17:22.280Z,93.51
2018-01-23T13:18:22.276Z,93.61
2018-01-23T13:20:15.433Z,93.75
2018-01-23T13:21:15.439Z,93.65
2018-01-23T13:23:08.579Z,93.13
2018-01-23T13:24:08.601Z,93.80
2018-01-23T13:26:01.757Z,93.51
2018-01-23T13:27:01.764Z,93.51
2018-01-23T13:29:54.908Z,93.65
2018-01-23T13:31:48.130Z,93.37
2018-01-23T13:32:48.128Z,93.27
2018-01-23T13:34:41.300Z,93.37
2018-01-23T13:35:41.308Z,93.56
2018-01-23T13:37:34.492Z,93.46
2018-01-23T13:38:34.495Z,93.27
2018-01-23T13:40:44.015Z,93.37
2018-01-23T13:41:44.009Z,93.27
2018-01-23T13:43:37.258Z,92.71
2018-01-23T13:44:37.165Z,93.27
2018-01-23T13:46:30.328Z,93.65
2018-01-23T13:47:30.314Z,93.37
2018-01-23T13:49:23.535Z,93.18
2018-01-23T13:50:23.550Z,93.56
2018-01-23T13:52:16.739Z,93.56
2018-01-23T13:53:16.734Z,93.27
2018-01-23T13:55:09.888Z,93.18
2018-01-23T13:56:09.902Z,92.90
2018-01-23T13:58:03.055Z,92.80
2018-01-23T13:59:03.054Z,92.80
2018-01-23T14:00:56.211Z,92.90
2018-01-23T14:01:56.225Z,92.52
2018-01-23T14:03:49.361Z,92.99
2018-01-23T14:04:49.381Z,93.08
2018-01-23T14:06:42.558Z,93.46
2018-01-23T14:07:42.560Z,93.56
2018-01-23T14:09:35.717Z,93.84
2018-01-23T14:10:35.718Z,94.32
2018-01-23T14:12:28.885Z,94.13
2018-01-23T14:13:28.877Z,94.23
2018-01-23T14:15:22.078Z,94.60
2018-01-23T14:16:22.035Z,93.65
2018-01-23T14:18:15.197Z,94.60
2018-01-23T14:19:15.200Z,94.79
2018-01-23T14:21:08.351Z,94.70
2018-01-23T14:22:08.359Z,94.32
2018-01-23T14:24:01.499Z,94.42
2018-01-23T14:25:01.515Z,95.55
2018-01-23T14:26:54.668Z,94.98
2018-01-23T14:27:54.680Z,95.26
2018-01-23T14:29:47.872Z,96.03
2018-01-23T14:30:47.834Z,95.74
2018-01-23T14:32:39.991Z,95.65
2018-01-23T14:33:39.986Z,95.93
2018-01-23T14:35:43.883Z,95.93
2018-01-23T14:36:43.895Z,96.03
2018-01-23T14:38:37.144Z,96.12
2018-01-23T14:39:37.155Z,95.74
2018-01-23T14:41:29.365Z,95.65
2018-01-23T14:42:29.352Z,95.45
2018-01-23T14:44:22.493Z,95.93
2018-01-23T14:45:22.499Z,95.17
2018-01-23T14:47:15.660Z,94.89
2018-01-23T14:48:15.663Z,94.89
2018-01-23T14:50:07.822Z,95.17
2018-01-23T14:51:07.842Z,94.89
2018-01-23T14:53:00.987Z,95.07
2018-01-23T14:54:00.994Z,94.89
2018-01-23T14:55:54.140Z,94.98
2018-01-23T14:56:54.152Z,95.45
2018-01-23T14:58:47.320Z,95.65
2018-01-23T14:59:47.316Z,95.36
2018-01-23T15:01:39.470Z,95.07
2018-01-23T15:02:39.465Z,95.26
2018-01-23T15:04:32.602Z,95.17
2018-01-23T15:05:32.620Z,95.55
2018-01-23T15:07:25.789Z,95.26
2018-01-23T15:08:25.790Z,95.74
2018-01-23T15:10:18.928Z,96.31
2018-01-23T15:11:18.944Z,96.03
2018-01-23T15:13:12.123Z,96.12
2018-01-23T15:14:12.118Z,96.50
2018-01-23T15:16:05.270Z,95.74
2018-01-23T15:17:05.272Z,96.31
2018-01-23T15:18:58.486Z,96.78
2018-01-23T15:19:58.490Z,96.50
2018-01-23T15:21:51.650Z,96.03
2018-01-23T15:22:51.686Z,95.55
2018-01-23T15:24:43.924Z,96.03
2018-01-23T15:25:43.932Z,95.84
2018-01-23T15:27:37.095Z,95.84
2018-01-23T15:28:37.090Z,96.03
2018-01-23T15:30:30.221Z,96.12
2018-01-23T15:31:30.239Z,95.65
2018-01-23T15:33:23.442Z,95.93
2018-01-23T15:34:23.396Z,96.69
2018-01-23T15:36:15.563Z,96.59
2018-01-23T15:37:15.594Z,96.31
2018-01-23T15:39:08.725Z,95.93
2018-01-23T15:40:08.732Z,95.65
2018-01-23T15:42:01.880Z,96.03
2018-01-23T15:43:01.881Z,95.17
2018-01-23T15:44:55.036Z,95.41
2018-01-23T15:45:55.047Z,95.65
2018-01-23T15:47:48.231Z,95.36
2018-01-23T15:48:48.238Z,95.45
2018-01-23T15:50:41.400Z,95.26
2018-01-23T15:51:41.404Z,95.65
2018-01-23T15:53:34.553Z,95.07
2018-01-23T15:54:34.568Z,95.55
2018-01-23T15:56:27.754Z,95.36
2018-01-23T15:57:27.761Z,95.79
2018-01-23T15:59:20.957Z,95.45
2018-01-23T16:00:20.944Z,95.26
2018-01-23T16:02:14.084Z,95.50
2018-01-23T16:03:14.106Z,95.31
2018-01-23T16:05:07.295Z,95.60
2018-01-23T16:06:07.257Z,95.55
2018-01-23T16:08:00.408Z,95.26
2018-01-23T16:09:00.407Z,95.31
2018-01-23T16:10:53.557Z,95.45
2018-01-23T16:11:53.560Z,95.22
2018-01-23T16:13:46.776Z,95.65
2018-01-23T16:14:46.746Z,95.60
2018-01-23T16:16:39.871Z,95.31
2018-01-23T16:17:39.884Z,95.31
2018-01-23T16:19:33.056Z,95.26
2018-01-23T16:20:33.046Z,95.36
2018-01-23T16:22:26.190Z,95.31
2018-01-23T16:23:26.210Z,95.22
2018-01-23T16:25:35.750Z,95.22
2018-01-23T16:26:35.726Z,95.55
2018-01-23T16:28:28.944Z,95.26
2018-01-23T16:29:28.946Z,96.08
2018-01-23T16:31:22.093Z,96.12
2018-01-23T16:32:22.102Z,95.98
2018-01-23T16:34:15.266Z,95.55
2018-01-23T16:35:15.264Z,95.98
2018-01-23T16:37:08.421Z,95.98
2018-01-23T16:38:08.434Z,95.69
2018-01-23T16:40:01.597Z,96.26
2018-01-23T16:41:01.643Z,96.26
2018-01-23T16:42:53.751Z,95.69
2018-01-23T16:43:53.755Z,96.26
2018-01-23T16:45:45.958Z,96.45
2018-01-23T16:46:45.951Z,96.50
2018-01-23T16:48:38.152Z,96.69
2018-01-23T16:49:38.142Z,96.83
2018-01-23T16:51:31.277Z,96.97
2018-01-23T16:52:31.297Z,97.02
2018-01-23T16:54:24.485Z,97.02
2018-01-23T16:55:24.491Z,97.02
2018-01-23T16:57:17.645Z,96.92
2018-01-23T16:58:17.666Z,96.92
2018-01-23T17:00:10.834Z,96.92
2018-01-23T17:01:10.838Z,97.02
2018-01-23T17:03:19.337Z,96.83
2018-01-23T17:04:19.358Z,97.21
2018-01-23T17:06:12.475Z,96.83
2018-01-23T17:07:12.491Z,97.21
2018-01-23T17:09:05.658Z,97.50
2018-01-23T17:10:05.663Z,97.59
2018-01-23T17:11:57.816Z,97.12
2018-01-23T17:12:57.832Z,97.50
2018-01-23T17:14:50.984Z,97.97
2018-01-23T17:15:50.979Z,97.97
2018-01-23T17:17:44.127Z,97.50
2018-01-23T17:18:44.138Z,97.40
2018-01-23T17:20:37.330Z,98.07
2018-01-23T17:21:37.311Z,98.35
2018-01-23T17:23:30.487Z,98.96
2018-01-23T17:24:30.477Z,98.77
2018-01-23T17:26:23.612Z,99.63
2018-01-23T17:27:23.624Z,99.99
2018-01-23T17:29:16.783Z,99.99
2018-01-23T17:30:17.527Z,99.99
2018-01-23T17:32:26.287Z,99.99
2018-01-23T17:33:26.299Z,99.99
2018-01-23T17:35:19.471Z,99.68
2018-01-23T17:36:19.458Z,99.72
2018-01-23T17:38:12.600Z,99.68
2018-01-23T17:39:12.616Z,99.49
2018-01-23T17:41:05.855Z,99.99
2018-01-23T17:42:05.792Z,99.99
2018-01-23T17:43:59.037Z,99.99
2018-01-23T17:44:58.954Z,99.99
2018-01-23T17:46:51.181Z,99.68
2018-01-23T17:47:51.202Z,99.68
2018-01-23T17:49:44.353Z,99.58
2018-01-23T17:50:44.340Z,99.77
2018-01-23T17:52:36.515Z,99.99
2018-01-23T17:53:36.530Z,99.99
2018-01-23T17:55:29.711Z,99.99
2018-01-23T17:56:29.713Z,99.99
2018-01-23T17:58:22.855Z,99.99
2018-01-23T17:59:22.863Z,99.99
2018-01-23T18:01:16.017Z,99.99
2018-01-23T18:02:16.016Z,99.99
2018-01-23T18:04:09.186Z,99.99
2018-01-23T18:05:09.178Z,99.99
2018-01-23T18:07:02.328Z,99.99
2018-01-23T18:08:02.335Z,99.99
2018-01-23T18:09:55.542Z,99.99
2018-01-23T18:10:55.509Z,99.99
2018-01-23T18:12:47.671Z,99.99
2018-01-23T18:13:47.695Z,99.99
2018-01-23T18:15:40.966Z,99.99
2018-01-23T18:16:40.959Z,99.99
2018-01-23T18:18:33.141Z,99.99
2018-01-23T18:19:33.124Z,99.99
2018-01-23T18:21:26.294Z,99.99
2018-01-23T18:22:26.303Z,99.99
2018-01-23T18:24:19.436Z,99.99
2018-01-23T18:25:19.464Z,99.99
2018-01-23T18:27:12.633Z,99.99
2018-01-23T18:28:12.620Z,99.99
2018-01-23T18:30:05.823Z,99.99
2018-01-23T18:31:05.836Z,99.99
2018-01-23T18:33:15.330Z,99.99
2018-01-23T18:34:15.342Z,99.99
2018-01-23T18:36:08.504Z,99.99
2018-01-23T18:37:08.507Z,99.99
2018-01-23T18:39:00.627Z,99.99
2018-01-23T18:40:00.647Z,99.99
2018-01-23T18:41:53.792Z,99.99